sensor_id;sensor_type;location;lat;lon;timestamp;P1;durP1;ratioP1;P2;durP2;ratioP2
15192;SDS011;7697;51.630;7.484;2023-10-09T00:05:21;4.15;;;3.20;;
15192;SDS011;7697;51.630;7.484;2023-10-09T00:10:37;3.67;;;2.88;;
15192;SDS011;7697;51.630;7.484;2023-10-09T00:15:50;4.47;;;3.58;;
15192;SDS011;7697;51.630;7.484;2023-10-09T00:20:53;5.22;;;3.45;;
15192;SDS011;7697;51.630;7.484;2023-10-09T00:25:55;5.18;;;3.50;;
15192;SDS011;7697;51.630;7.484;2023-10-09T00:31:10;5.70;;;3.53;;
15192;SDS011;7697;51.630;7.484;2023-10-09T00:36:15;4.85;;;3.10;;
15192;SDS011;7697;51.630;7.484;2023-10-09T00:41:20;4.35;;;3.70;;
15192;SDS011;7697;51.630;7.484;2023-10-09T00:46:23;4.72;;;3.65;;
15192;SDS011;7697;51.630;7.484;2023-10-09T00:51:27;7.05;;;4.05;;
15192;SDS011;7697;51.630;7.484;2023-10-09T00:56:35;5.88;;;3.85;;
15192;SDS011;7697;51.630;7.484;2023-10-09T01:01:43;4.97;;;3.35;;
15192;SDS011;7697;51.630;7.484;2023-10-09T01:06:56;5.63;;;4.22;;
15192;SDS011;7697;51.630;7.484;2023-10-09T01:12:15;6.07;;;4.65;;
15192;SDS011;7697;51.630;7.484;2023-10-09T01:17:19;7.90;;;6.07;;
15192;SDS011;7697;51.630;7.484;2023-10-09T01:22:35;8.23;;;5.88;;
15192;SDS011;7697;51.630;7.484;2023-10-09T01:27:38;9.27;;;6.38;;
15192;SDS011;7697;51.630;7.484;2023-10-09T01:32:40;10.02;;;6.80;;
15192;SDS011;7697;51.630;7.484;2023-10-09T01:37:43;10.77;;;7.28;;
15192;SDS011;7697;51.630;7.484;2023-10-09T01:42:51;9.98;;;7.35;;
15192;SDS011;7697;51.630;7.484;2023-10-09T01:47:53;12.63;;;8.07;;
15192;SDS011;7697;51.630;7.484;2023-10-09T01:52:55;11.73;;;7.63;;
15192;SDS011;7697;51.630;7.484;2023-10-09T01:58:03;13.25;;;9.43;;
15192;SDS011;7697;51.630;7.484;2023-10-09T02:03:06;12.05;;;8.77;;
15192;SDS011;7697;51.630;7.484;2023-10-09T02:08:12;11.10;;;7.30;;
15192;SDS011;7697;51.630;7.484;2023-10-09T02:13:17;11.43;;;8.75;;
15192;SDS011;7697;51.630;7.484;2023-10-09T02:18:29;14.57;;;9.50;;
15192;SDS011;7697;51.630;7.484;2023-10-09T02:23:52;13.88;;;10.05;;
15192;SDS011;7697;51.630;7.484;2023-10-09T02:28:58;12.77;;;8.85;;
15192;SDS011;7697;51.630;7.484;2023-10-09T02:34:03;11.48;;;8.35;;
15192;SDS011;7697;51.630;7.484;2023-10-09T02:39:06;14.35;;;9.85;;
15192;SDS011;7697;51.630;7.484;2023-10-09T02:44:24;12.75;;;9.15;;
15192;SDS011;7697;51.630;7.484;2023-10-09T02:49:26;13.43;;;9.82;;
15192;SDS011;7697;51.630;7.484;2023-10-09T02:54:28;15.65;;;10.93;;
15192;SDS011;7697;51.630;7.484;2023-10-09T02:59:37;15.00;;;9.50;;
15192;SDS011;7697;51.630;7.484;2023-10-09T03:04:41;11.57;;;9.13;;
15192;SDS011;7697;51.630;7.484;2023-10-09T03:09:43;14.02;;;8.90;;
15192;SDS011;7697;51.630;7.484;2023-10-09T03:14:46;10.43;;;7.90;;
15192;SDS011;7697;51.630;7.484;2023-10-09T03:19:48;11.63;;;8.82;;
15192;SDS011;7697;51.630;7.484;2023-10-09T03:24:50;12.77;;;9.95;;
15192;SDS011;7697;51.630;7.484;2023-10-09T03:29:54;16.98;;;10.63;;
15192;SDS011;7697;51.630;7.484;2023-10-09T03:34:56;13.15;;;9.68;;
15192;SDS011;7697;51.630;7.484;2023-10-09T03:40:00;13.43;;;9.55;;
15192;SDS011;7697;51.630;7.484;2023-10-09T03:45:04;12.05;;;9.30;;
15192;SDS011;7697;51.630;7.484;2023-10-09T03:50:12;14.15;;;9.73;;
15192;SDS011;7697;51.630;7.484;2023-10-09T03:55:26;14.13;;;9.68;;
15192;SDS011;7697;51.630;7.484;2023-10-09T04:00:30;12.27;;;8.52;;
15192;SDS011;7697;51.630;7.484;2023-10-09T04:05:41;12.10;;;8.38;;
15192;SDS011;7697;51.630;7.484;2023-10-09T04:10:43;11.85;;;8.88;;
15192;SDS011;7697;51.630;7.484;2023-10-09T04:15:52;13.00;;;8.52;;
15192;SDS011;7697;51.630;7.484;2023-10-09T04:20:54;12.52;;;8.45;;
15192;SDS011;7697;51.630;7.484;2023-10-09T04:26:13;11.18;;;7.95;;
15192;SDS011;7697;51.630;7.484;2023-10-09T04:31:16;10.95;;;8.13;;
15192;SDS011;7697;51.630;7.484;2023-10-09T04:36:19;11.13;;;7.25;;
15192;SDS011;7697;51.630;7.484;2023-10-09T04:41:28;12.77;;;8.07;;
15192;SDS011;7697;51.630;7.484;2023-10-09T04:46:34;12.02;;;8.85;;
15192;SDS011;7697;51.630;7.484;2023-10-09T04:51:44;10.07;;;7.95;;
15192;SDS011;7697;51.630;7.484;2023-10-09T04:57:02;10.27;;;8.10;;
15192;SDS011;7697;51.630;7.484;2023-10-09T05:02:14;10.70;;;8.55;;
15192;SDS011;7697;51.630;7.484;2023-10-09T05:07:19;10.40;;;7.90;;
15192;SDS011;7697;51.630;7.484;2023-10-09T05:12:46;10.02;;;7.43;;
15192;SDS011;7697;51.630;7.484;2023-10-09T05:17:58;11.98;;;8.10;;
15192;SDS011;7697;51.630;7.484;2023-10-09T05:23:09;12.93;;;8.40;;
15192;SDS011;7697;51.630;7.484;2023-10-09T05:28:25;9.40;;;7.22;;
15192;SDS011;7697;51.630;7.484;2023-10-09T05:33:50;10.15;;;8.07;;
15192;SDS011;7697;51.630;7.484;2023-10-09T05:38:53;11.63;;;8.00;;
15192;SDS011;7697;51.630;7.484;2023-10-09T05:44:17;11.18;;;7.88;;
15192;SDS011;7697;51.630;7.484;2023-10-09T05:49:38;11.38;;;7.68;;
15192;SDS011;7697;51.630;7.484;2023-10-09T05:54:47;10.88;;;7.47;;
15192;SDS011;7697;51.630;7.484;2023-10-09T06:00:07;10.48;;;7.57;;
15192;SDS011;7697;51.630;7.484;2023-10-09T06:05:28;11.60;;;7.57;;
15192;SDS011;7697;51.630;7.484;2023-10-09T06:10:51;9.85;;;7.05;;
15192;SDS011;7697;51.630;7.484;2023-10-09T06:16:06;14.10;;;8.15;;
15192;SDS011;7697;51.630;7.484;2023-10-09T06:21:33;11.73;;;8.23;;
15192;SDS011;7697;51.630;7.484;2023-10-09T06:27:01;12.88;;;8.55;;
15192;SDS011;7697;51.630;7.484;2023-10-09T06:32:24;13.00;;;8.10;;
15192;SDS011;7697;51.630;7.484;2023-10-09T06:37:44;12.50;;;8.23;;
15192;SDS011;7697;51.630;7.484;2023-10-09T06:43:04;14.77;;;8.77;;
15192;SDS011;7697;51.630;7.484;2023-10-09T06:48:09;13.45;;;9.00;;
15192;SDS011;7697;51.630;7.484;2023-10-09T06:53:27;12.07;;;9.00;;
15192;SDS011;7697;51.630;7.484;2023-10-09T06:58:49;12.13;;;8.38;;
15192;SDS011;7697;51.630;7.484;2023-10-09T07:03:55;14.15;;;9.10;;
15192;SDS011;7697;51.630;7.484;2023-10-09T07:09:12;13.50;;;9.57;;
15192;SDS011;7697;51.630;7.484;2023-10-09T07:14:19;14.02;;;9.48;;
15192;SDS011;7697;51.630;7.484;2023-10-09T07:19:54;12.43;;;8.10;;
15192;SDS011;7697;51.630;7.484;2023-10-09T07:25:15;10.05;;;7.78;;
15192;SDS011;7697;51.630;7.484;2023-10-09T07:30:27;10.13;;;7.40;;
15192;SDS011;7697;51.630;7.484;2023-10-09T07:35:39;9.60;;;7.43;;
15192;SDS011;7697;51.630;7.484;2023-10-09T07:40:50;10.40;;;7.35;;
15192;SDS011;7697;51.630;7.484;2023-10-09T07:45:59;10.50;;;8.52;;
15192;SDS011;7697;51.630;7.484;2023-10-09T07:51:21;14.88;;;9.10;;
15192;SDS011;7697;51.630;7.484;2023-10-09T07:56:25;15.25;;;9.82;;
15192;SDS011;7697;51.630;7.484;2023-10-09T08:01:30;12.07;;;8.65;;
15192;SDS011;7697;51.630;7.484;2023-10-09T08:06:38;10.68;;;7.93;;
15192;SDS011;7697;51.630;7.484;2023-10-09T08:11:41;9.30;;;7.75;;
15192;SDS011;7697;51.630;7.484;2023-10-09T08:16:57;11.10;;;7.70;;
15192;SDS011;7697;51.630;7.484;2023-10-09T08:22:11;11.43;;;8.60;;
15192;SDS011;7697;51.630;7.484;2023-10-09T08:27:44;10.00;;;8.07;;
15192;SDS011;7697;51.630;7.484;2023-10-09T08:32:54;12.07;;;9.02;;
15192;SDS011;7697;51.630;7.484;2023-10-09T08:38:03;11.48;;;8.73;;
15192;SDS011;7697;51.630;7.484;2023-10-09T08:43:13;12.48;;;9.18;;
15192;SDS011;7697;51.630;7.484;2023-10-09T08:48:16;12.63;;;9.15;;
15192;SDS011;7697;51.630;7.484;2023-10-09T08:53:18;14.30;;;9.65;;
15192;SDS011;7697;51.630;7.484;2023-10-09T09:04:37;19.02;;;10.77;;
15192;SDS011;7697;51.630;7.484;2023-10-09T09:09:40;13.45;;;9.82;;
15192;SDS011;7697;51.630;7.484;2023-10-09T09:14:57;13.50;;;10.88;;
15192;SDS011;7697;51.630;7.484;2023-10-09T09:20:01;14.05;;;9.85;;
15192;SDS011;7697;51.630;7.484;2023-10-09T09:25:23;14.25;;;10.82;;
15192;SDS011;7697;51.630;7.484;2023-10-09T09:30:31;13.85;;;9.77;;
15192;SDS011;7697;51.630;7.484;2023-10-09T09:35:34;13.45;;;10.23;;
15192;SDS011;7697;51.630;7.484;2023-10-09T09:40:36;16.45;;;11.23;;
15192;SDS011;7697;51.630;7.484;2023-10-09T09:45:41;12.40;;;9.25;;
15192;SDS011;7697;51.630;7.484;2023-10-09T09:50:49;14.07;;;9.05;;
15192;SDS011;7697;51.630;7.484;2023-10-09T09:55:54;12.10;;;8.90;;
15192;SDS011;7697;51.630;7.484;2023-10-09T10:01:00;11.38;;;8.32;;
15192;SDS011;7697;51.630;7.484;2023-10-09T10:06:10;13.05;;;9.07;;
15192;SDS011;7697;51.630;7.484;2023-10-09T10:22:05;10.50;;;8.55;;
15192;SDS011;7697;51.630;7.484;2023-10-09T10:27:27;12.27;;;9.35;;
15192;SDS011;7697;51.630;7.484;2023-10-09T10:32:42;13.98;;;9.85;;
15192;SDS011;7697;51.630;7.484;2023-10-09T10:37:57;10.32;;;8.77;;
15192;SDS011;7697;51.630;7.484;2023-10-09T10:43:14;12.25;;;9.52;;
15192;SDS011;7697;51.630;7.484;2023-10-09T10:48:33;12.85;;;9.80;;
15192;SDS011;7697;51.630;7.484;2023-10-09T10:53:41;13.98;;;9.82;;
15192;SDS011;7697;51.630;7.484;2023-10-09T10:58:57;14.35;;;9.10;;
15192;SDS011;7697;51.630;7.484;2023-10-09T11:04:13;12.45;;;9.55;;
15192;SDS011;7697;51.630;7.484;2023-10-09T11:09:26;13.07;;;9.63;;
15192;SDS011;7697;51.630;7.484;2023-10-09T11:14:36;11.30;;;9.25;;
15192;SDS011;7697;51.630;7.484;2023-10-09T11:20:05;11.95;;;8.40;;
15192;SDS011;7697;51.630;7.484;2023-10-09T11:25:27;10.98;;;8.18;;
15192;SDS011;7697;51.630;7.484;2023-10-09T11:30:30;10.77;;;8.50;;
15192;SDS011;7697;51.630;7.484;2023-10-09T11:35:34;11.07;;;8.18;;
15192;SDS011;7697;51.630;7.484;2023-10-09T11:40:39;11.32;;;7.88;;
15192;SDS011;7697;51.630;7.484;2023-10-09T11:46:07;11.10;;;7.57;;
15192;SDS011;7697;51.630;7.484;2023-10-09T11:51:12;8.65;;;7.20;;
15192;SDS011;7697;51.630;7.484;2023-10-09T11:56:22;10.85;;;7.35;;
15192;SDS011;7697;51.630;7.484;2023-10-09T12:01:27;11.00;;;7.72;;
15192;SDS011;7697;51.630;7.484;2023-10-09T12:06:35;9.45;;;7.05;;
15192;SDS011;7697;51.630;7.484;2023-10-09T12:11:38;12.38;;;7.63;;
15192;SDS011;7697;51.630;7.484;2023-10-09T12:16:40;11.10;;;8.18;;
15192;SDS011;7697;51.630;7.484;2023-10-09T12:21:49;10.48;;;7.00;;
15192;SDS011;7697;51.630;7.484;2023-10-09T12:26:55;8.80;;;6.75;;
15192;SDS011;7697;51.630;7.484;2023-10-09T12:31:57;8.18;;;6.22;;
15192;SDS011;7697;51.630;7.484;2023-10-09T12:36:59;9.77;;;7.43;;
15192;SDS011;7697;51.630;7.484;2023-10-09T12:42:03;11.05;;;7.55;;
15192;SDS011;7697;51.630;7.484;2023-10-09T12:47:08;9.45;;;7.38;;
15192;SDS011;7697;51.630;7.484;2023-10-09T12:52:11;8.80;;;7.28;;
15192;SDS011;7697;51.630;7.484;2023-10-09T12:57:17;8.50;;;6.85;;
15192;SDS011;7697;51.630;7.484;2023-10-09T13:02:18;9.02;;;7.35;;
15192;SDS011;7697;51.630;7.484;2023-10-09T13:07:29;8.52;;;6.45;;
15192;SDS011;7697;51.630;7.484;2023-10-09T13:12:32;9.48;;;7.63;;
15192;SDS011;7697;51.630;7.484;2023-10-09T13:17:38;9.45;;;7.50;;
15192;SDS011;7697;51.630;7.484;2023-10-09T13:22:41;9.10;;;7.85;;
15192;SDS011;7697;51.630;7.484;2023-10-09T13:27:46;13.18;;;7.85;;
15192;SDS011;7697;51.630;7.484;2023-10-09T13:32:50;10.55;;;7.88;;
15192;SDS011;7697;51.630;7.484;2023-10-09T13:37:52;10.45;;;7.65;;
15192;SDS011;7697;51.630;7.484;2023-10-09T13:42:56;12.05;;;8.75;;
15192;SDS011;7697;51.630;7.484;2023-10-09T13:47:59;12.35;;;8.68;;
15192;SDS011;7697;51.630;7.484;2023-10-09T13:53:03;10.43;;;8.52;;
15192;SDS011;7697;51.630;7.484;2023-10-09T13:58:13;9.05;;;7.07;;
15192;SDS011;7697;51.630;7.484;2023-10-09T14:03:20;8.35;;;6.93;;
15192;SDS011;7697;51.630;7.484;2023-10-09T14:08:26;8.52;;;7.00;;
15192;SDS011;7697;51.630;7.484;2023-10-09T14:13:30;11.30;;;7.55;;
15192;SDS011;7697;51.630;7.484;2023-10-09T14:18:33;12.45;;;9.02;;
15192;SDS011;7697;51.630;7.484;2023-10-09T14:23:35;12.23;;;9.27;;
15192;SDS011;7697;51.630;7.484;2023-10-09T14:28:38;10.45;;;7.63;;
15192;SDS011;7697;51.630;7.484;2023-10-09T14:33:42;10.88;;;7.55;;
15192;SDS011;7697;51.630;7.484;2023-10-09T14:38:51;11.05;;;7.40;;
15192;SDS011;7697;51.630;7.484;2023-10-09T14:43:56;12.90;;;10.20;;
15192;SDS011;7697;51.630;7.484;2023-10-09T14:48:59;12.27;;;10.30;;
15192;SDS011;7697;51.630;7.484;2023-10-09T14:54:00;10.40;;;8.60;;
15192;SDS011;7697;51.630;7.484;2023-10-09T14:59:04;10.25;;;7.95;;
15192;SDS011;7697;51.630;7.484;2023-10-09T15:04:06;11.45;;;9.10;;
15192;SDS011;7697;51.630;7.484;2023-10-09T15:09:14;10.48;;;7.85;;
15192;SDS011;7697;51.630;7.484;2023-10-09T15:14:23;13.35;;;10.07;;
15192;SDS011;7697;51.630;7.484;2023-10-09T15:19:25;11.73;;;9.88;;
15192;SDS011;7697;51.630;7.484;2023-10-09T15:24:29;8.80;;;7.13;;
15192;SDS011;7697;51.630;7.484;2023-10-09T15:29:33;9.07;;;7.00;;
15192;SDS011;7697;51.630;7.484;2023-10-09T15:34:37;9.77;;;7.05;;
15192;SDS011;7697;51.630;7.484;2023-10-09T15:39:39;11.20;;;7.97;;
15192;SDS011;7697;51.630;7.484;2023-10-09T15:44:42;9.02;;;7.45;;
15192;SDS011;7697;51.630;7.484;2023-10-09T15:49:48;8.27;;;7.38;;
15192;SDS011;7697;51.630;7.484;2023-10-09T15:54:54;9.15;;;7.43;;
15192;SDS011;7697;51.630;7.484;2023-10-09T15:59:57;9.00;;;7.47;;
15192;SDS011;7697;51.630;7.484;2023-10-09T16:05:01;13.43;;;9.05;;
15192;SDS011;7697;51.630;7.484;2023-10-09T16:10:06;10.68;;;8.43;;
15192;SDS011;7697;51.630;7.484;2023-10-09T16:15:11;11.18;;;8.23;;
15192;SDS011;7697;51.630;7.484;2023-10-09T16:20:14;12.07;;;8.38;;
15192;SDS011;7697;51.630;7.484;2023-10-09T16:25:21;10.13;;;7.07;;
15192;SDS011;7697;51.630;7.484;2023-10-09T16:30:25;11.40;;;8.50;;
15192;SDS011;7697;51.630;7.484;2023-10-09T16:35:28;12.20;;;8.90;;
15192;SDS011;7697;51.630;7.484;2023-10-09T16:40:29;10.13;;;7.70;;
15192;SDS011;7697;51.630;7.484;2023-10-09T16:45:33;11.82;;;7.45;;
15192;SDS011;7697;51.630;7.484;2023-10-09T16:50:43;10.93;;;8.73;;
15192;SDS011;7697;51.630;7.484;2023-10-09T16:55:46;11.75;;;9.07;;
15192;SDS011;7697;51.630;7.484;2023-10-09T17:00:51;10.02;;;8.43;;
15192;SDS011;7697;51.630;7.484;2023-10-09T17:05:56;15.32;;;9.55;;
15192;SDS011;7697;51.630;7.484;2023-10-09T17:10:58;10.23;;;8.35;;
15192;SDS011;7697;51.630;7.484;2023-10-09T17:16:01;8.75;;;7.30;;
15192;SDS011;7697;51.630;7.484;2023-10-09T17:21:03;11.10;;;8.30;;
15192;SDS011;7697;51.630;7.484;2023-10-09T17:26:12;10.70;;;7.65;;
15192;SDS011;7697;51.630;7.484;2023-10-09T17:31:16;10.88;;;7.47;;
15192;SDS011;7697;51.630;7.484;2023-10-09T17:36:20;9.38;;;7.40;;
15192;SDS011;7697;51.630;7.484;2023-10-09T17:41:22;12.35;;;8.75;;
15192;SDS011;7697;51.630;7.484;2023-10-09T17:46:25;9.55;;;7.72;;
15192;SDS011;7697;51.630;7.484;2023-10-09T17:51:26;8.45;;;7.43;;
15192;SDS011;7697;51.630;7.484;2023-10-09T17:56:28;10.63;;;8.45;;
15192;SDS011;7697;51.630;7.484;2023-10-09T18:01:31;11.63;;;8.82;;
15192;SDS011;7697;51.630;7.484;2023-10-09T18:06:33;12.52;;;9.95;;
15192;SDS011;7697;51.630;7.484;2023-10-09T18:11:36;12.77;;;10.43;;
15192;SDS011;7697;51.630;7.484;2023-10-09T18:16:41;10.48;;;9.27;;
15192;SDS011;7697;51.630;7.484;2023-10-09T18:21:43;11.82;;;10.00;;
15192;SDS011;7697;51.630;7.484;2023-10-09T18:26:46;12.73;;;9.55;;
15192;SDS011;7697;51.630;7.484;2023-10-09T18:31:49;10.63;;;8.43;;
15192;SDS011;7697;51.630;7.484;2023-10-09T18:36:51;11.85;;;8.85;;
15192;SDS011;7697;51.630;7.484;2023-10-09T18:41:53;13.07;;;10.13;;
15192;SDS011;7697;51.630;7.484;2023-10-09T18:46:58;10.80;;;8.75;;
15192;SDS011;7697;51.630;7.484;2023-10-09T18:52:00;12.13;;;9.45;;
15192;SDS011;7697;51.630;7.484;2023-10-09T18:57:01;12.02;;;9.68;;
15192;SDS011;7697;51.630;7.484;2023-10-09T19:02:05;11.48;;;9.43;;
15192;SDS011;7697;51.630;7.484;2023-10-09T19:07:11;15.13;;;10.55;;
15192;SDS011;7697;51.630;7.484;2023-10-09T19:12:13;13.02;;;9.45;;
15192;SDS011;7697;51.630;7.484;2023-10-09T19:17:16;12.57;;;9.77;;
15192;SDS011;7697;51.630;7.484;2023-10-09T19:22:19;12.30;;;8.93;;
15192;SDS011;7697;51.630;7.484;2023-10-09T19:27:21;11.05;;;8.80;;
15192;SDS011;7697;51.630;7.484;2023-10-09T19:32:27;11.65;;;9.77;;
15192;SDS011;7697;51.630;7.484;2023-10-09T19:37:30;10.73;;;8.77;;
15192;SDS011;7697;51.630;7.484;2023-10-09T19:42:32;12.25;;;10.23;;
15192;SDS011;7697;51.630;7.484;2023-10-09T19:47:36;12.98;;;10.10;;
15192;SDS011;7697;51.630;7.484;2023-10-09T19:52:40;12.23;;;8.93;;
15192;SDS011;7697;51.630;7.484;2023-10-09T19:57:42;11.75;;;9.75;;
15192;SDS011;7697;51.630;7.484;2023-10-09T20:02:45;11.63;;;8.35;;
15192;SDS011;7697;51.630;7.484;2023-10-09T20:07:47;9.82;;;8.57;;
15192;SDS011;7697;51.630;7.484;2023-10-09T20:12:49;12.00;;;8.45;;
15192;SDS011;7697;51.630;7.484;2023-10-09T20:17:52;13.75;;;9.60;;
15192;SDS011;7697;51.630;7.484;2023-10-09T20:22:54;12.73;;;9.18;;
15192;SDS011;7697;51.630;7.484;2023-10-09T20:27:56;10.20;;;8.55;;
15192;SDS011;7697;51.630;7.484;2023-10-09T20:32:59;10.80;;;8.63;;
15192;SDS011;7697;51.630;7.484;2023-10-09T20:38:01;11.82;;;8.45;;
15192;SDS011;7697;51.630;7.484;2023-10-09T20:43:03;11.85;;;8.93;;
15192;SDS011;7697;51.630;7.484;2023-10-09T20:48:06;10.10;;;8.55;;
15192;SDS011;7697;51.630;7.484;2023-10-09T20:53:08;11.02;;;8.55;;
15192;SDS011;7697;51.630;7.484;2023-10-09T20:58:10;9.98;;;7.93;;
15192;SDS011;7697;51.630;7.484;2023-10-09T21:03:13;9.30;;;8.20;;
15192;SDS011;7697;51.630;7.484;2023-10-09T21:08:15;10.68;;;8.73;;
15192;SDS011;7697;51.630;7.484;2023-10-09T21:13:17;9.48;;;8.45;;
15192;SDS011;7697;51.630;7.484;2023-10-09T21:18:21;10.55;;;8.60;;
15192;SDS011;7697;51.630;7.484;2023-10-09T21:23:22;14.38;;;9.32;;
15192;SDS011;7697;51.630;7.484;2023-10-09T21:28:24;9.07;;;8.15;;
15192;SDS011;7697;51.630;7.484;2023-10-09T21:33:28;11.00;;;9.10;;
15192;SDS011;7697;51.630;7.484;2023-10-09T21:38:31;12.60;;;9.07;;
15192;SDS011;7697;51.630;7.484;2023-10-09T21:43:32;14.48;;;9.40;;
15192;SDS011;7697;51.630;7.484;2023-10-09T21:48:36;11.13;;;9.38;;
15192;SDS011;7697;51.630;7.484;2023-10-09T21:53:39;9.48;;;8.13;;
15192;SDS011;7697;51.630;7.484;2023-10-09T21:58:41;9.82;;;8.50;;
15192;SDS011;7697;51.630;7.484;2023-10-09T22:03:44;11.65;;;9.18;;
15192;SDS011;7697;51.630;7.484;2023-10-09T22:08:48;9.68;;;8.48;;
15192;SDS011;7697;51.630;7.484;2023-10-09T22:13:50;12.13;;;8.23;;
15192;SDS011;7697;51.630;7.484;2023-10-09T22:18:53;9.50;;;7.63;;
15192;SDS011;7697;51.630;7.484;2023-10-09T22:23:55;9.75;;;8.40;;
15192;SDS011;7697;51.630;7.484;2023-10-09T22:28:58;9.95;;;8.75;;
15192;SDS011;7697;51.630;7.484;2023-10-09T22:34:02;9.57;;;7.72;;
15192;SDS011;7697;51.630;7.484;2023-10-09T22:39:10;9.45;;;7.72;;
15192;SDS011;7697;51.630;7.484;2023-10-09T22:44:20;10.57;;;8.40;;
15192;SDS011;7697;51.630;7.484;2023-10-09T22:49:23;8.60;;;7.57;;
15192;SDS011;7697;51.630;7.484;2023-10-09T22:54:32;8.77;;;7.60;;
15192;SDS011;7697;51.630;7.484;2023-10-09T22:59:35;9.98;;;7.85;;
15192;SDS011;7697;51.630;7.484;2023-10-09T23:04:45;11.52;;;8.70;;
15192;SDS011;7697;51.630;7.484;2023-10-09T23:09:49;10.55;;;8.10;;
15192;SDS011;7697;51.630;7.484;2023-10-09T23:14:51;10.82;;;8.40;;
15192;SDS011;7697;51.630;7.484;2023-10-09T23:19:55;10.98;;;8.85;;
15192;SDS011;7697;51.630;7.484;2023-10-09T23:24:56;12.63;;;9.73;;
15192;SDS011;7697;51.630;7.484;2023-10-09T23:30:09;12.95;;;9.00;;
15192;SDS011;7697;51.630;7.484;2023-10-09T23:35:16;11.20;;;8.85;;
15192;SDS011;7697;51.630;7.484;2023-10-09T23:40:20;10.07;;;8.60;;
15192;SDS011;7697;51.630;7.484;2023-10-09T23:45:37;11.38;;;9.65;;
15192;SDS011;7697;51.630;7.484;2023-10-09T23:50:41;12.02;;;9.35;;
15192;SDS011;7697;51.630;7.484;2023-10-09T23:55:47;11.23;;;9.20;;
